Time;durP1;ratioP1;P1;durP2;ratioP2;P2;SDS_P1;SDS_P2;PMS_P1;PMS_P2;Temp;Humidity;BMP_temperature;BMP_pressure;BME280_temperature;BME280_humidity;BME280_pressure;Samples;Min_cycle;Max_cycle;Signal;HPM_P1;HPM_P2
2023/04/16 06:08:04;;;;;;;13.75;7.97;;;7.60;99.90;;;;;;6338683;27;20408;-77
2023/04/16 06:11:06;;;;;;;14.57;7.38;;;;;;;;;;6317598;28;20051;-76
2023/04/16 07:04:34;;;;;;;37.58;20.20;;;7.50;99.90;;;;;;6358614;27;20396;-79
2023/04/16 07:07:36;;;;;;;38.55;19.83;;;7.70;99.90;;;;;;6340603;28;20052;-75
2023/04/16 07:10:38;;;;;;;34.72;18.52;;;7.70;99.90;;;;;;6360854;28;20048;-77
2023/04/16 07:13:40;;;;;;;32.97;18.23;;;7.90;99.90;;;;;;6366862;27;20058;-81
2023/04/16 07:16:42;;;;;;;29.33;17.27;;;7.90;99.90;;;;;;6359835;27;20055;-78
2023/04/16 07:19:46;;;;;;;31.60;16.70;;;8.00;99.90;;;;;;6343743;28;20047;-77
2023/04/16 07:22:48;;;;;;;32.40;17.52;;;8.00;99.90;;;;;;6345498;28;20135;-79
2023/04/16 07:25:50;;;;;;;32.80;17.77;;;8.10;99.90;;;;;;6354256;28;20039;-79
2023/04/16 07:28:52;;;;;;;29.13;17.42;;;8.10;99.90;;;;;;6360366;27;20047;-77
2023/04/16 07:31:54;;;;;;;30.60;18.15;;;8.30;99.90;;;;;;6355750;27;20044;-76
2023/04/16 07:34:57;;;;;;;30.25;17.92;;;8.30;99.90;;;;;;6350535;28;20392;-80
2023/04/16 07:37:59;;;;;;;31.52;18.45;;;8.30;99.90;;;;;;6355466;28;21930;-80
2023/04/16 07:41:01;;;;;;;30.90;18.25;;;8.30;99.90;;;;;;6345801;28;20059;-77
2023/04/16 07:44:04;;;;;;;28.83;17.35;;;8.40;99.90;;;;;;6344885;28;20048;-76
2023/04/16 07:47:06;;;;;;;27.30;17.20;;;8.30;99.90;;;;;;6352087;28;20040;-76
2023/04/16 07:50:10;;;;;;;29.73;17.83;;;8.30;99.90;;;;;;6345481;28;20045;-77
2023/04/16 07:53:12;;;;;;;29.20;17.85;;;8.30;99.90;;;;;;6334485;28;20055;-78
2023/04/16 07:56:14;;;;;;;30.23;18.35;;;8.30;99.90;;;;;;6342798;28;20047;-75
2023/04/16 07:59:16;;;;;;;30.70;17.63;;;8.50;99.90;;;;;;6348674;28;20490;-79
2023/04/16 08:02:18;;;;;;;28.63;17.88;;;8.50;99.90;;;;;;6351991;28;20058;-78
2023/04/16 08:05:21;;;;;;;32.72;19.30;;;8.40;99.90;;;;;;6346429;28;20403;-78
2023/04/16 08:08:23;;;;;;;29.95;19.15;;;8.50;99.90;;;;;;6342883;28;20044;-79
2023/04/16 08:11:25;;;;;;;31.40;18.58;;;8.50;99.90;;;;;;6341492;28;20059;-77
2023/04/16 08:14:27;;;;;;;30.88;18.55;;;8.60;99.90;;;;;;6335524;28;20051;-78
2023/04/16 08:17:29;;;;;;;31.98;18.95;;;8.60;99.90;;;;;;6331358;28;20044;-79
2023/04/16 08:20:32;;;;;;;30.42;17.85;;;8.50;99.90;;;;;;6335994;28;20048;-80
2023/04/16 08:23:34;;;;;;;;;;;8.60;99.90;;;;;;6326835;28;20480;-78
2023/04/16 08:26:36;;;;;;;29.85;17.00;;;8.50;99.90;;;;;;6325079;28;19920;-77
2023/04/16 08:29:38;;;;;;;29.13;17.63;;;8.70;99.90;;;;;;6326547;28;20044;-78
2023/04/16 08:32:40;;;;;;;29.23;17.88;;;8.70;99.90;;;;;;6325341;28;20707;-79
2023/04/16 08:35:43;;;;;;;28.80;17.70;;;8.80;99.90;;;;;;6324844;28;20036;-79
2023/04/16 08:38:45;;;;;;;27.85;18.15;;;8.80;99.90;;;;;;6336733;28;20412;-79
2023/04/16 08:41:47;;;;;;;27.98;18.33;;;8.70;99.90;;;;;;6334226;28;20048;-79
2023/04/16 08:44:53;;;;;;;26.17;17.17;;;8.80;99.90;;;;;;6324947;28;20047;-79
2023/04/16 08:47:55;;;;;;;26.88;16.75;;;8.80;99.90;;;;;;6326158;28;20044;-81
2023/04/16 08:51:01;;;;;;;26.50;16.55;;;8.90;99.90;;;;;;6338076;28;20057;-80
2023/04/16 08:54:05;;;;;;;28.73;17.27;;;8.80;99.90;;;;;;6321012;28;20040;-78
2023/04/16 08:57:11;;;;;;;27.63;17.92;;;8.80;99.90;;;;;;6333360;28;20043;-80
2023/04/16 09:00:14;;;;;;;28.10;17.60;;;8.70;99.90;;;;;;6315668;28;20045;-80
2023/04/16 09:03:18;;;;;;;25.27;16.33;;;8.70;99.90;;;;;;6324986;28;20067;-76
2023/04/16 09:06:21;;;;;;;27.70;16.63;;;8.70;99.90;;;;;;6324934;28;20052;-77
2023/04/16 09:09:23;;;;;;;24.17;15.23;;;8.80;99.90;;;;;;6325857;28;20051;-80
2023/04/16 09:12:26;;;;;;;24.02;15.27;;;8.70;99.90;;;;;;6323699;28;20036;-78
2023/04/16 09:15:28;;;;;;;25.83;14.63;;;8.70;99.90;;;;;;6325449;28;20048;-80
2023/04/16 09:18:31;;;;;;;25.80;16.13;;;8.80;99.90;;;;;;6326088;28;20058;-80
2023/04/16 09:21:34;;;;;;;26.02;16.10;;;8.80;99.90;;;;;;6330213;28;20054;-79
2023/04/16 09:24:37;;;;;;;25.52;16.75;;;8.80;99.90;;;;;;6329701;28;20047;-82
2023/04/16 09:27:40;;;;;;;25.05;14.98;;;8.80;99.90;;;;;;6339988;28;20070;-78
2023/04/16 09:30:42;;;;;;;24.50;15.50;;;8.90;99.90;;;;;;6336335;28;20040;-76
2023/04/16 09:34:01;;;;;;;20.92;14.18;;;8.90;99.90;;;;;;6323760;28;20055;-77
2023/04/16 09:37:16;;;;;;;22.92;14.48;;;8.70;99.90;;;;;;6328507;28;20232;-76
2023/04/16 09:40:25;;;;;;;22.00;14.40;;;8.80;99.90;;;;;;6329103;28;20048;-75
2023/04/16 09:43:27;;;;;;;22.27;14.40;;;8.70;99.90;;;;;;6328844;28;20404;-75
2023/04/16 09:46:31;;;;;;;24.40;15.32;;;8.80;99.90;;;;;;6349446;28;20047;-75
2023/04/16 09:49:34;;;;;;;;;;;8.80;99.90;;;;;;6342607;28;20085;-77
2023/04/16 09:52:38;;;;;;;21.67;13.93;;;8.70;99.90;;;;;;6323810;28;19920;-78
2023/04/16 09:55:40;;;;;;;21.77;13.10;;;8.90;99.90;;;;;;6344999;28;20067;-76
2023/04/16 09:58:41;;;;;;;23.08;13.82;;;8.90;99.90;;;;;;6322687;28;20110;-74
2023/04/16 10:01:45;;;;;;;21.92;13.98;;;9.00;99.90;;;;;;6317882;28;20040;-74
2023/04/16 10:04:48;;;;;;;19.25;12.85;;;9.10;99.90;;;;;;6324689;28;20052;-74
2023/04/16 10:07:52;;;;;;;18.73;11.82;;;9.10;99.90;;;;;;6328620;28;20402;-77
2023/04/16 10:10:55;;;;;;;20.70;12.90;;;9.20;99.90;;;;;;6333376;28;20047;-79
2023/04/16 10:13:57;;;;;;;21.75;13.52;;;9.20;99.90;;;;;;6316477;28;20048;-77
2023/04/16 10:17:00;;;;;;;21.10;13.20;;;9.20;99.90;;;;;;6323984;28;20048;-77
2023/04/16 10:20:03;;;;;;;20.10;12.60;;;9.20;99.90;;;;;;6322728;28;20386;-80
2023/04/16 10:23:06;;;;;;;19.13;11.95;;;9.20;99.90;;;;;;6321580;28;20059;-78
2023/04/16 10:26:08;;;;;;;;;;;9.20;99.90;;;;;;6320487;28;20676;-77
2023/04/16 10:29:12;;;;;;;21.75;12.77;;;9.30;99.90;;;;;;6318937;28;19923;-76
2023/04/16 10:32:14;;;;;;;21.27;13.02;;;9.30;99.90;;;;;;6320189;28;20048;-80
2023/04/16 10:35:19;;;;;;;23.23;13.48;;;9.30;99.90;;;;;;6320514;28;20047;-78
2023/04/16 10:38:25;;;;;;;20.00;12.75;;;9.20;99.90;;;;;;6318111;28;20044;-79
2023/04/16 10:41:27;;;;;;;25.20;14.85;;;9.10;99.90;;;;;;6313925;28;20059;-79
2023/04/16 10:44:31;;;;;;;21.40;13.48;;;9.10;99.90;;;;;;6320908;28;20063;-74
2023/04/16 10:47:41;;;;;;;24.13;14.63;;;9.10;99.90;;;;;;6320232;28;20047;-77
2023/04/16 10:50:54;;;;;;;21.33;13.48;;;9.20;99.90;;;;;;6318683;28;20094;-80
2023/04/16 10:54:03;;;;;;;20.52;12.68;;;9.20;99.90;;;;;;6313744;28;20044;-79
2023/04/16 10:57:07;;;;;;;23.02;13.32;;;9.20;99.90;;;;;;6320621;28;20060;-78
2023/04/16 11:00:22;;;;;;;22.88;13.70;;;9.20;99.90;;;;;;6321905;28;20051;-78
2023/04/16 11:03:25;;;;;;;22.20;13.35;;;9.30;99.90;;;;;;6325771;28;20413;-79
2023/04/16 11:06:28;;;;;;;21.52;13.18;;;9.20;99.90;;;;;;6345415;28;20139;-77
2023/04/16 11:10:04;;;;;;;21.80;13.10;;;9.10;99.90;;;;;;6327830;28;20056;-76
2023/04/16 11:13:07;;;;;;;21.60;13.57;;;9.20;99.90;;;;;;6295005;28;20056;-77
2023/04/16 11:16:10;;;;;;;;;;;9.20;99.90;;;;;;6295844;28;20150;-76
2023/04/16 11:19:17;;;;;;;24.48;14.00;;;9.30;99.90;;;;;;6300449;28;19979;-76
2023/04/16 11:22:20;;;;;;;21.00;13.38;;;9.30;99.90;;;;;;6313696;28;20044;-79
2023/04/16 11:25:28;;;;;;;21.25;11.80;;;9.20;99.90;;;;;;6320493;28;20051;-78
2023/04/16 11:28:34;;;;;;;20.63;12.77;;;9.20;99.90;;;;;;6331893;28;20434;-78
2023/04/16 11:31:36;;;;;;;17.02;11.27;;;9.20;99.90;;;;;;6330725;28;20361;-79
2023/04/16 11:34:45;;;;;;;19.42;11.70;;;9.20;99.90;;;;;;6318488;28;20434;-76
2023/04/16 11:37:48;;;;;;;18.30;10.85;;;9.30;99.90;;;;;;6321814;28;20044;-78
2023/04/16 11:40:52;;;;;;;18.75;11.45;;;9.30;99.90;;;;;;6326829;28;20044;-78
2023/04/16 11:43:54;;;;;;;19.33;12.23;;;9.40;99.90;;;;;;6324309;28;20052;-77
2023/04/16 11:46:56;;;;;;;17.52;10.60;;;9.40;99.90;;;;;;6328971;28;20051;-75
2023/04/16 11:49:58;;;;;;;18.27;10.93;;;9.30;99.90;;;;;;6325442;28;20054;-76
2023/04/16 11:53:05;;;;;;;15.27;9.60;;;9.20;99.90;;;;;;6340749;28;20044;-77
2023/04/16 11:56:08;;;;;;;16.00;9.70;;;9.20;99.90;;;;;;6342793;28;20048;-79
2023/04/16 11:59:13;;;;;;;15.23;9.18;;;9.30;99.90;;;;;;6341005;28;20048;-80
2023/04/16 12:02:14;;;;;;;14.07;8.88;;;9.30;99.90;;;;;;6321457;28;20051;-78
2023/04/16 12:05:33;;;;;;;16.83;9.73;;;9.40;99.90;;;;;;6320287;28;20052;-76
2023/04/16 12:08:35;;;;;;;14.27;8.48;;;9.40;99.90;;;;;;6300725;28;20047;-76
2023/04/16 12:11:41;;;;;;;13.52;8.25;;;9.40;99.90;;;;;;6310595;28;20051;-78
2023/04/16 12:14:50;;;;;;;12.73;7.65;;;9.30;99.90;;;;;;6325084;28;20048;-77
2023/04/16 12:18:08;;;;;;;12.43;7.70;;;9.50;99.90;;;;;;6325951;28;20052;-77
2023/04/16 12:21:10;;;;;;;9.93;7.03;;;9.60;99.90;;;;;;6324593;28;20162;-76
2023/04/16 12:24:14;;;;;;;11.65;7.03;;;9.60;99.90;;;;;;6324087;28;20055;-78
2023/04/16 12:27:17;;;;;;;13.93;6.63;;;9.60;99.90;;;;;;6329733;28;20036;-78
2023/04/16 12:30:22;;;;;;;11.00;6.78;;;9.70;99.90;;;;;;6308377;28;20052;-80
2023/04/16 12:33:24;;;;;;;9.13;5.43;;;9.80;99.90;;;;;;6317816;28;20052;-79
2023/04/16 12:36:26;;;;;;;9.38;5.10;;;9.80;99.90;;;;;;6303132;28;20054;-77
2023/04/16 12:39:28;;;;;;;7.20;4.07;;;9.80;99.90;;;;;;6314966;28;20112;-77
2023/04/16 12:42:34;;;;;;;7.13;4.35;;;9.80;99.90;;;;;;6322670;28;20507;-79
2023/04/16 12:45:36;;;;;;;9.30;5.45;;;9.70;99.90;;;;;;6322940;28;20441;-75
2023/04/16 12:48:38;;;;;;;8.02;4.63;;;9.70;99.90;;;;;;6322686;28;20047;-75
2023/04/16 12:51:41;;;;;;;7.15;4.30;;;9.90;99.90;;;;;;6323109;28;20386;-78
2023/04/16 12:54:42;;;;;;;6.15;3.90;;;9.90;99.90;;;;;;6321077;28;20578;-80
2023/04/16 12:57:47;;;;;;;7.25;4.00;;;9.90;99.90;;;;;;6322443;28;20393;-76
2023/04/16 13:00:49;;;;;;;6.97;4.25;;;9.90;99.90;;;;;;6316251;28;20052;-76
2023/04/16 13:03:51;;;;;;;6.93;3.75;;;9.90;99.90;;;;;;6319444;28;20445;-78
2023/04/16 13:06:53;;;;;;;6.72;4.03;;;9.90;99.90;;;;;;6320238;28;20400;-81
2023/04/16 13:09:55;;;;;;;5.82;3.25;;;9.90;99.90;;;;;;6322442;28;20080;-78
2023/04/16 13:12:58;;;;;;;5.18;3.20;;;9.80;99.90;;;;;;6324319;28;20074;-80
2023/04/16 13:16:00;;;;;;;5.57;3.20;;;9.80;99.90;;;;;;6331007;28;20051;-78
2023/04/16 13:19:01;;;;;;;5.38;3.15;;;9.80;99.90;;;;;;6317562;28;20130;-78
2023/04/16 13:22:04;;;;;;;4.65;2.55;;;9.90;99.90;;;;;;6334946;28;20513;-81
2023/04/16 13:25:08;;;;;;;5.30;2.75;;;9.90;99.90;;;;;;6321668;28;20063;-80
2023/04/16 13:28:11;;;;;;;5.00;2.90;;;9.80;99.90;;;;;;6321257;28;20054;-78
2023/04/16 13:31:14;;;;;;;4.43;2.85;;;9.80;99.90;;;;;;6321195;28;20059;-77
2023/04/16 13:34:16;;;;;;;4.73;2.90;;;9.70;99.90;;;;;;6306111;28;20058;-77
2023/04/16 13:37:18;;;;;;;4.60;2.60;;;9.60;99.90;;;;;;6319026;28;20381;-77
2023/04/16 13:40:20;;;;;;;5.05;3.03;;;9.70;99.90;;;;;;6321333;28;20047;-79
2023/04/16 13:43:23;;;;;;;5.03;3.03;;;9.60;99.90;;;;;;6320423;28;20528;-78
2023/04/16 13:46:26;;;;;;;5.75;3.00;;;9.70;99.90;;;;;;6320970;28;20052;-78
2023/04/16 13:49:27;;;;;;;5.30;3.70;;;9.70;99.90;;;;;;6320593;28;20058;-79
2023/04/16 13:52:29;;;;;;;7.00;3.78;;;9.70;99.90;;;;;;6319697;28;20052;-79
2023/04/16 13:55:33;;;;;;;5.88;3.40;;;9.80;99.90;;;;;;6317370;28;20665;-78
2023/04/16 13:58:36;;;;;;;6.15;3.65;;;9.80;99.90;;;;;;6320649;28;20409;-77
2023/04/16 14:01:38;;;;;;;6.90;4.20;;;9.70;99.90;;;;;;6320668;28;20051;-75
2023/04/16 14:04:40;;;;;;;5.60;3.72;;;9.70;99.90;;;;;;6320127;28;20408;-78
2023/04/16 14:07:42;;;;;;;6.72;4.05;;;9.70;99.90;;;;;;6320268;28;20127;-78
2023/04/16 14:10:44;;;;;;;7.00;3.72;;;9.80;99.90;;;;;;6321874;28;20040;-79
2023/04/16 14:13:47;;;;;;;6.97;4.13;;;9.80;99.90;;;;;;6321693;28;20048;-77
2023/04/16 14:16:49;;;;;;;7.10;4.43;;;9.80;99.90;;;;;;6331992;28;20052;-79
2023/04/16 14:19:51;;;;;;;6.32;4.00;;;9.70;99.90;;;;;;6325654;28;20059;-78
2023/04/16 14:22:53;;;;;;;6.70;4.40;;;9.80;99.90;;;;;;6320063;28;20048;-76
2023/04/16 14:25:55;;;;;;;8.35;4.38;;;9.70;99.90;;;;;;6320124;28;20507;-76
2023/04/16 14:28:58;;;;;;;7.72;4.55;;;9.70;99.90;;;;;;6319822;28;20054;-78
2023/04/16 14:32:02;;;;;;;9.18;5.32;;;9.80;99.90;;;;;;6317949;28;20055;-77
2023/04/16 14:35:05;;;;;;;8.10;4.90;;;9.80;99.90;;;;;;6320251;28;20048;-75
2023/04/16 14:38:07;;;;;;;8.70;5.28;;;9.70;99.90;;;;;;6319129;28;20150;-74
2023/04/16 14:41:11;;;;;;;7.75;5.25;;;9.80;99.90;;;;;;6319516;28;20043;-78
2023/04/16 14:44:14;;;;;;;8.13;5.57;;;9.80;99.90;;;;;;6318805;28;20059;-75
2023/04/16 14:47:17;;;;;;;8.57;5.28;;;9.80;99.90;;;;;;6319417;28;20044;-75
2023/04/16 14:50:19;;;;;;;7.78;5.15;;;9.80;99.90;;;;;;6316599;28;20480;-79
2023/04/16 14:53:22;;;;;;;8.07;5.35;;;9.70;99.90;;;;;;6316262;28;20409;-79
2023/04/16 14:56:24;;;;;;;8.35;5.57;;;9.70;99.90;;;;;;6302073;28;20047;-76
2023/04/16 14:59:28;;;;;;;9.55;5.80;;;9.70;99.90;;;;;;6317217;28;20108;-80
2023/04/16 15:02:29;;;;;;;9.60;6.13;;;9.70;99.90;;;;;;6310440;28;20425;-80
2023/04/16 15:05:31;;;;;;;8.88;5.88;;;9.60;99.90;;;;;;6300967;28;20048;-80
2023/04/16 15:08:34;;;;;;;9.90;6.50;;;9.70;99.90;;;;;;6318404;28;20055;-79
2023/04/16 15:11:36;;;;;;;10.00;6.55;;;9.70;99.90;;;;;;6311260;28;20519;-79
2023/04/16 15:14:39;;;;;;;11.13;6.82;;;9.70;99.90;;;;;;6303132;28;20044;-79
2023/04/16 15:17:43;;;;;;;10.93;7.13;;;9.60;99.90;;;;;;6310688;28;20405;-80
2023/04/16 15:20:45;;;;;;;;;;;9.60;99.90;;;;;;6314669;28;20044;-79
2023/04/16 15:23:47;;;;;;;11.52;7.43;;;9.60;99.90;;;;;;6317815;28;19923;-80
2023/04/16 15:26:49;;;;;;;12.95;8.73;;;9.70;99.90;;;;;;6321667;28;20048;-78
2023/04/16 15:29:52;;;;;;;14.13;9.48;;;9.60;99.90;;;;;;6319906;28;20040;-78
2023/04/16 15:32:54;;;;;;;14.90;9.07;;;9.60;99.90;;;;;;6323114;28;20067;-78
2023/04/16 15:35:56;;;;;;;12.50;8.77;;;9.70;99.90;;;;;;6315627;28;20119;-77
2023/04/16 15:38:58;;;;;;;14.95;9.48;;;9.60;99.90;;;;;;6316558;28;20040;-80
2023/04/16 15:42:00;;;;;;;15.15;10.20;;;9.60;99.90;;;;;;6308029;28;20052;-77
2023/04/16 15:45:05;;;;;;;15.52;10.60;;;9.50;99.90;;;;;;6320961;28;20197;-81
2023/04/16 15:48:07;;;;;;;14.95;10.32;;;9.60;99.90;;;;;;6323339;28;20051;-79
2023/04/16 15:51:09;;;;;;;15.95;10.93;;;9.50;99.90;;;;;;6322754;28;20050;-74
2023/04/16 15:54:10;;;;;;;17.55;11.10;;;9.60;99.90;;;;;;6317904;28;20093;-75
2023/04/16 15:57:12;;;;;;;15.30;10.25;;;9.70;99.90;;;;;;6321463;28;20051;-77
2023/04/16 16:00:17;;;;;;;17.40;11.63;;;9.70;99.90;;;;;;6322384;28;20048;-75
2023/04/16 16:03:20;;;;;;;16.30;11.32;;;9.60;99.90;;;;;;6313694;28;20044;-78
2023/04/16 16:06:22;;;;;;;16.98;11.55;;;9.70;99.90;;;;;;6311366;28;20045;-77
2023/04/16 16:09:25;;;;;;;19.05;12.05;;;9.70;99.90;;;;;;6320197;28;20048;-78
2023/04/16 16:12:27;;;;;;;19.45;12.80;;;9.60;99.90;;;;;;6312810;28;20040;-78
2023/04/16 16:15:30;;;;;;;17.75;11.77;;;9.60;99.90;;;;;;6322082;28;20040;-78
2023/04/16 16:18:32;;;;;;;20.58;12.77;;;9.70;99.90;;;;;;6331159;28;20048;-74
2023/04/16 16:21:34;;;;;;;19.10;12.15;;;9.60;99.90;;;;;;6319102;28;20079;-76
2023/04/16 16:24:36;;;;;;;21.77;12.95;;;9.60;99.90;;;;;;6322857;28;20047;-80
2023/04/16 16:27:39;;;;;;;22.48;14.35;;;9.60;99.90;;;;;;6305721;28;20057;-77
2023/04/16 16:30:42;;;;;;;22.07;14.10;;;9.40;99.90;;;;;;6343200;28;20048;-80
2023/04/16 16:33:44;;;;;;;20.90;13.57;;;9.50;99.90;;;;;;6344767;28;20043;-76
2023/04/16 16:36:46;;;;;;;20.15;12.60;;;9.50;99.90;;;;;;6322273;28;20063;-75
2023/04/16 16:39:49;;;;;;;23.48;13.98;;;9.50;99.90;;;;;;6322453;28;20059;-79
2023/04/16 16:42:51;;;;;;;20.80;12.63;;;9.60;99.90;;;;;;6331004;28;20040;-77
2023/04/16 16:45:54;;;;;;;20.85;12.68;;;9.60;99.90;;;;;;6322538;28;20059;-79
2023/04/16 16:48:57;;;;;;;20.90;12.77;;;9.50;99.90;;;;;;6322502;28;20625;-79
2023/04/16 16:51:59;;;;;;;22.02;13.25;;;9.40;99.90;;;;;;6322649;28;20185;-79
2023/04/16 16:55:01;;;;;;;19.02;11.45;;;9.50;99.90;;;;;;6338159;28;20622;-77
2023/04/16 16:58:03;;;;;;;17.25;11.48;;;9.50;99.90;;;;;;6323625;28;20173;-74
2023/04/16 17:01:07;;;;;;;20.15;12.68;;;9.50;99.90;;;;;;6322354;28;20059;-76
2023/04/16 17:04:10;;;;;;;19.67;11.75;;;9.50;99.90;;;;;;6333455;28;20048;-78
2023/04/16 17:07:12;;;;;;;19.55;12.45;;;9.40;99.90;;;;;;6347184;28;20139;-75
2023/04/16 17:10:19;;;;;;;19.75;12.63;;;9.40;99.90;;;;;;6324839;28;20067;-78
2023/04/16 17:13:20;;;;;;;22.38;13.77;;;9.50;99.90;;;;;;6321946;28;20445;-76
2023/04/16 17:16:24;;;;;;;19.60;12.85;;;9.40;99.90;;;;;;6320446;28;20051;-74
2023/04/16 17:19:27;;;;;;;22.25;14.95;;;9.50;99.90;;;;;;6320219;28;20074;-74
2023/04/16 17:22:29;;;;;;;21.77;13.88;;;9.50;99.90;;;;;;6332009;28;20071;-78
2023/04/16 17:25:31;;;;;;;21.38;14.15;;;9.50;99.90;;;;;;6353851;28;20083;-76
2023/04/16 17:28:32;;;;;;;24.45;15.05;;;9.60;99.90;;;;;;6347760;28;20044;-77
2023/04/16 17:31:36;;;;;;;22.50;15.20;;;9.60;99.90;;;;;;6319930;28;20055;-77
2023/04/16 17:34:38;;;;;;;26.52;16.98;;;9.70;99.90;;;;;;6313276;28;20051;-75
2023/04/16 17:37:39;;;;;;;24.63;15.82;;;9.70;99.90;;;;;;6306934;28;20414;-75
2023/04/16 17:40:41;;;;;;;23.92;15.93;;;9.70;99.90;;;;;;6320092;28;20044;-76
2023/04/16 17:43:43;;;;;;;25.30;16.90;;;9.70;99.90;;;;;;6335945;28;20051;-76
2023/04/16 17:46:46;;;;;;;27.63;16.92;;;9.70;99.90;;;;;;6338797;28;20051;-75
2023/04/16 17:49:48;;;;;;;25.65;17.17;;;9.70;99.90;;;;;;6346939;28;20067;-77
2023/04/16 17:52:50;;;;;;;26.77;17.23;;;9.80;99.90;;;;;;6334229;28;20047;-76
2023/04/16 17:55:52;;;;;;;28.48;18.13;;;9.80;99.90;;;;;;6345926;28;20062;-78
2023/04/16 17:58:54;;;;;;;28.08;17.23;;;9.70;99.90;;;;;;6343304;28;20074;-77
2023/04/16 18:01:57;;;;;;;30.52;18.98;;;9.80;99.90;;;;;;6320960;28;20051;-78
2023/04/16 18:04:59;;;;;;;29.85;18.05;;;9.80;99.90;;;;;;6319979;28;20059;-77
2023/04/16 18:08:01;;;;;;;28.90;18.50;;;9.80;99.90;;;;;;6320214;28;20044;-77
2023/04/16 18:11:07;;;;;;;30.88;18.92;;;9.80;99.90;;;;;;6314687;28;20059;-80
2023/04/16 18:14:11;;;;;;;27.25;18.60;;;9.70;99.90;;;;;;6319126;28;20504;-80
2023/04/16 18:17:16;;;;;;;32.47;19.75;;;9.70;99.90;;;;;;6317414;28;20486;-79
2023/04/16 18:20:18;;;;;;;30.65;19.27;;;9.70;99.90;;;;;;6321703;28;20051;-78
2023/04/16 18:23:21;;;;;;;35.97;21.95;;;9.80;99.90;;;;;;6314102;28;20047;-78
2023/04/16 18:26:22;;;;;;;33.65;21.02;;;9.80;99.90;;;;;;6319429;28;20439;-79
2023/04/16 18:29:24;;;;;;;34.30;21.30;;;9.70;99.90;;;;;;6320498;28;20051;-77
2023/04/16 18:32:28;;;;;;;34.42;21.13;;;9.70;99.90;;;;;;6321473;28;20496;-79
2023/04/16 18:35:29;;;;;;;29.20;19.25;;;9.60;99.90;;;;;;6312825;28;20051;-79
2023/04/16 18:38:33;;;;;;;32.05;19.15;;;9.60;99.90;;;;;;6319529;28;20051;-79
2023/04/16 18:41:36;;;;;;;28.42;18.35;;;9.70;99.90;;;;;;6304762;28;20400;-80
2023/04/16 18:44:38;;;;;;;31.45;20.00;;;9.70;99.90;;;;;;6294068;28;20429;-80
2023/04/16 18:47:41;;;;;;;29.80;18.95;;;9.80;99.90;;;;;;6304886;28;20048;-77
2023/04/16 18:50:43;;;;;;;33.10;19.95;;;9.80;99.90;;;;;;6318883;28;20544;-78
2023/04/16 18:53:45;;;;;;;28.80;18.77;;;9.80;99.90;;;;;;6312339;28;20047;-77
2023/04/16 18:56:46;;;;;;;31.67;18.88;;;9.70;99.90;;;;;;6310021;28;20059;-79
2023/04/16 18:59:48;;;;;;;28.60;18.50;;;9.80;99.90;;;;;;6325758;28;20043;-81
2023/04/16 19:02:51;;;;;;;29.02;18.70;;;9.80;99.90;;;;;;6320015;28;20075;-80
2023/04/16 19:05:53;;;;;;;28.27;18.55;;;9.90;99.90;;;;;;6309445;28;20055;-79
2023/04/16 19:08:55;;;;;;;27.58;17.95;;;10.00;99.90;;;;;;6318826;28;20040;-77
2023/04/16 19:11:57;;;;;;;28.48;17.52;;;9.90;99.90;;;;;;6317431;28;20068;-76
2023/04/16 19:14:59;;;;;;;28.35;17.98;;;9.90;99.90;;;;;;6313669;28;20063;-76
2023/04/16 19:18:03;;;;;;;30.45;18.63;;;9.90;99.90;;;;;;6321695;28;20493;-77
2023/04/16 19:21:05;;;;;;;27.52;17.27;;;9.90;99.90;;;;;;6329937;28;20054;-75
2023/04/16 19:24:07;;;;;;;29.45;18.45;;;9.90;99.90;;;;;;6327602;28;20047;-79
2023/04/16 19:27:09;;;;;;;26.25;17.73;;;10.00;99.90;;;;;;6337153;28;20047;-79
2023/04/16 19:30:12;;;;;;;26.05;18.08;;;10.00;99.90;;;;;;6338006;28;20136;-79
2023/04/16 19:33:15;;;;;;;27.83;16.83;;;9.90;99.90;;;;;;6318447;28;20087;-79
2023/04/16 19:36:17;;;;;;;26.80;17.27;;;9.90;99.90;;;;;;6317903;28;20280;-76
2023/04/16 19:39:18;;;;;;;25.88;17.50;;;9.80;99.90;;;;;;6318538;28;20524;-77
2023/04/16 19:42:20;;;;;;;24.63;17.23;;;9.80;99.90;;;;;;6316886;28;20044;-78
2023/04/16 19:45:24;;;;;;;26.30;16.85;;;9.90;99.90;;;;;;6319655;28;20054;-80
2023/04/16 19:48:29;;;;;;;23.92;16.88;;;10.00;99.90;;;;;;6314468;28;20909;-77
2023/04/16 19:51:31;;;;;;;26.95;17.45;;;10.00;99.90;;;;;;6325348;28;20401;-80
2023/04/16 19:54:35;;;;;;;27.77;17.23;;;9.90;99.90;;;;;;6306669;28;20488;-78
2023/04/16 19:57:37;;;;;;;27.30;18.02;;;9.90;99.90;;;;;;6318910;28;20264;-80
2023/04/16 20:00:40;;;;;;;27.10;17.65;;;9.90;99.90;;;;;;6317139;28;20040;-79
2023/04/16 20:03:43;;;;;;;26.45;17.80;;;9.90;99.90;;;;;;6328183;28;20052;-79
2023/04/16 20:06:45;;;;;;;26.73;17.33;;;9.90;99.90;;;;;;6323158;28;20051;-79
2023/04/16 20:09:47;;;;;;;27.67;17.60;;;9.90;99.90;;;;;;6317743;28;20059;-79
2023/04/16 20:12:50;;;;;;;26.30;17.33;;;9.90;99.90;;;;;;6325618;28;20051;-79
2023/04/16 20:15:52;;;;;;;28.73;18.90;;;9.80;99.90;;;;;;6323777;28;20055;-80
2023/04/16 20:18:55;;;;;;;29.23;17.85;;;9.70;99.90;;;;;;6323444;28;20052;-77
2023/04/16 20:21:57;;;;;;;28.30;19.35;;;9.80;99.90;;;;;;6324523;28;20048;-77
2023/04/16 20:24:59;;;;;;;29.98;18.88;;;9.80;99.90;;;;;;6325205;28;20052;-76
2023/04/16 20:28:01;;;;;;;29.17;19.00;;;9.70;99.90;;;;;;6322832;28;20059;-79
2023/04/16 20:31:03;;;;;;;25.38;17.83;;;9.70;99.90;;;;;;6322690;28;20056;-78
2023/04/16 20:34:06;;;;;;;34.03;19.45;;;9.80;99.90;;;;;;6322997;28;20052;-77
2023/04/16 20:37:07;;;;;;;27.15;18.48;;;9.70;99.90;;;;;;6342301;28;20503;-79
2023/04/16 20:40:12;;;;;;;29.85;19.65;;;9.80;99.90;;;;;;6326666;28;20048;-78
2023/04/16 20:43:17;;;;;;;31.23;19.60;;;9.70;99.90;;;;;;6321568;28;20052;-78
2023/04/16 20:46:23;;;;;;;27.80;18.98;;;9.70;99.90;;;;;;6322366;28;20125;-77
2023/04/16 20:49:26;;;;;;;26.65;18.25;;;9.80;99.90;;;;;;6342379;28;20044;-78
2023/04/16 20:52:28;;;;;;;30.30;20.02;;;9.80;99.90;;;;;;6346494;28;20408;-79
2023/04/16 20:55:30;;;;;;;27.90;19.20;;;9.80;99.90;;;;;;6295265;28;20160;-77
2023/04/16 20:58:32;;;;;;;30.98;19.17;;;9.80;99.90;;;;;;6318778;28;20040;-77
2023/04/16 21:01:34;;;;;;;32.50;20.08;;;9.80;99.90;;;;;;6346715;28;20044;-80
2023/04/16 21:04:37;;;;;;;28.83;19.33;;;9.80;99.90;;;;;;6338369;28;20044;-80
2023/04/16 21:07:39;;;;;;;31.38;19.48;;;9.70;99.90;;;;;;6313638;28;20520;-79
2023/04/16 21:10:42;;;;;;;29.40;19.92;;;9.70;99.90;;;;;;6321056;28;20052;-79
2023/04/16 21:13:44;;;;;;;29.63;19.90;;;9.70;99.90;;;;;;6330356;28;20044;-79
2023/04/16 21:16:46;;;;;;;32.55;21.15;;;9.80;99.90;;;;;;6324101;28;20063;-79
2023/04/16 21:19:49;;;;;;;29.95;19.73;;;9.70;99.90;;;;;;6325165;28;20150;-78
2023/04/16 21:22:55;;;;;;;30.50;20.33;;;9.70;99.90;;;;;;6345190;28;20561;-78
2023/04/16 21:25:57;;;;;;;30.98;20.52;;;9.70;99.90;;;;;;6342847;28;20060;-80
2023/04/16 21:28:59;;;;;;;31.73;20.60;;;9.70;99.90;;;;;;6349820;28;20048;-79
2023/04/16 21:32:01;;;;;;;30.17;19.42;;;9.70;99.90;;;;;;6347400;28;20070;-80
2023/04/16 21:35:05;;;;;;;31.83;20.55;;;9.70;99.90;;;;;;6350206;28;20039;-79
2023/04/16 21:38:07;;;;;;;29.95;19.75;;;9.70;99.90;;;;;;6339326;28;20404;-79
2023/04/16 21:41:10;;;;;;;30.73;20.50;;;9.70;99.90;;;;;;6324697;28;20048;-79
2023/04/16 21:44:12;;;;;;;31.15;20.58;;;9.60;99.90;;;;;;6324407;28;20128;-79
2023/04/16 21:47:13;;;;;;;30.85;20.85;;;9.80;99.90;;;;;;6347903;28;20047;-79
2023/04/16 21:50:17;;;;;;;31.98;20.63;;;9.80;99.90;;;;;;6330165;28;20048;-79
2023/04/16 21:53:19;;;;;;;29.35;19.35;;;9.70;99.90;;;;;;6323835;28;20056;-78
2023/04/16 21:56:20;;;;;;;28.73;19.58;;;9.70;99.90;;;;;;6324158;28;20048;-76
2023/04/16 21:59:22;;;;;;;28.85;19.98;;;9.80;99.90;;;;;;6324287;28;20047;-78
